sensor_id;sensor_type;location;lat;lon;timestamp;temperature;humidity
22337;DHT22;14992;50.844;4.418;2023-08-21T00:00:13;22.20;99.90
22337;DHT22;14992;50.844;4.418;2023-08-21T00:02:43;22.30;99.90
22337;DHT22;14992;50.844;4.418;2023-08-21T00:05:12;22.30;99.90
22337;DHT22;14992;50.844;4.418;2023-08-21T00:07:41;22.30;99.90
22337;DHT22;14992;50.844;4.418;2023-08-21T00:10:11;22.30;99.90
22337;DHT22;14992;50.844;4.418;2023-08-21T00:12:41;22.40;99.90
22337;DHT22;14992;50.844;4.418;2023-08-21T00:15:10;22.70;99.90
22337;DHT22;14992;50.844;4.418;2023-08-21T00:17:39;22.70;99.90
22337;DHT22;14992;50.844;4.418;2023-08-21T00:20:11;22.70;99.90
22337;DHT22;14992;50.844;4.418;2023-08-21T00:22:40;22.70;99.90
22337;DHT22;14992;50.844;4.418;2023-08-21T00:25:10;22.80;99.90
22337;DHT22;14992;50.844;4.418;2023-08-21T00:27:39;22.60;99.90
22337;DHT22;14992;50.844;4.418;2023-08-21T00:30:10;22.50;99.90
22337;DHT22;14992;50.844;4.418;2023-08-21T00:32:39;22.40;99.90
22337;DHT22;14992;50.844;4.418;2023-08-21T00:35:10;22.20;99.90
22337;DHT22;14992;50.844;4.418;2023-08-21T00:37:39;22.20;99.90
22337;DHT22;14992;50.844;4.418;2023-08-21T00:40:09;22.20;99.90
22337;DHT22;14992;50.844;4.418;2023-08-21T00:42:39;22.10;99.90
22337;DHT22;14992;50.844;4.418;2023-08-21T00:45:09;22.20;99.90
22337;DHT22;14992;50.844;4.418;2023-08-21T00:47:40;22.40;99.90
22337;DHT22;14992;50.844;4.418;2023-08-21T00:50:11;22.40;99.90
22337;DHT22;14992;50.844;4.418;2023-08-21T00:52:40;22.30;99.90
22337;DHT22;14992;50.844;4.418;2023-08-21T00:55:13;22.10;99.90
22337;DHT22;14992;50.844;4.418;2023-08-21T00:57:42;22.00;99.90
22337;DHT22;14992;50.844;4.418;2023-08-21T01:00:13;22.00;99.90
22337;DHT22;14992;50.844;4.418;2023-08-21T01:02:42;21.80;99.90
22337;DHT22;14992;50.844;4.418;2023-08-21T01:05:14;21.70;99.90
22337;DHT22;14992;50.844;4.418;2023-08-21T01:07:49;21.70;99.90
22337;DHT22;14992;50.844;4.418;2023-08-21T01:10:25;21.70;99.90
22337;DHT22;14992;50.844;4.418;2023-08-21T01:13:00;21.70;99.90
22337;DHT22;14992;50.844;4.418;2023-08-21T01:15:30;21.70;99.90
22337;DHT22;14992;50.844;4.418;2023-08-21T01:18:00;21.80;99.90
22337;DHT22;14992;50.844;4.418;2023-08-21T01:20:31;22.00;99.90
22337;DHT22;14992;50.844;4.418;2023-08-21T01:23:04;22.00;99.90
22337;DHT22;14992;50.844;4.418;2023-08-21T01:25:34;22.00;99.90
22337;DHT22;14992;50.844;4.418;2023-08-21T01:28:03;22.00;99.90
22337;DHT22;14992;50.844;4.418;2023-08-21T01:30:33;21.90;99.90
22337;DHT22;14992;50.844;4.418;2023-08-21T01:33:06;21.90;99.90
22337;DHT22;14992;50.844;4.418;2023-08-21T01:35:38;21.80;99.90
22337;DHT22;14992;50.844;4.418;2023-08-21T01:38:07;21.90;99.90
22337;DHT22;14992;50.844;4.418;2023-08-21T01:40:37;22.00;99.90
22337;DHT22;14992;50.844;4.418;2023-08-21T01:43:06;22.00;99.90
22337;DHT22;14992;50.844;4.418;2023-08-21T01:45:35;22.10;99.90
22337;DHT22;14992;50.844;4.418;2023-08-21T01:48:04;22.10;99.90
22337;DHT22;14992;50.844;4.418;2023-08-21T01:50:34;22.00;99.90
22337;DHT22;14992;50.844;4.418;2023-08-21T01:53:03;21.90;99.90
22337;DHT22;14992;50.844;4.418;2023-08-21T01:55:32;21.90;99.90
22337;DHT22;14992;50.844;4.418;2023-08-21T01:58:03;22.00;99.90
22337;DHT22;14992;50.844;4.418;2023-08-21T02:00:31;22.00;99.90
22337;DHT22;14992;50.844;4.418;2023-08-21T02:03:00;22.00;99.90
22337;DHT22;14992;50.844;4.418;2023-08-21T02:05:29;22.00;99.90
22337;DHT22;14992;50.844;4.418;2023-08-21T02:08:00;21.90;99.90
22337;DHT22;14992;50.844;4.418;2023-08-21T02:10:29;21.90;99.90
22337;DHT22;14992;50.844;4.418;2023-08-21T02:12:57;21.80;99.90
22337;DHT22;14992;50.844;4.418;2023-08-21T02:15:28;21.70;99.90
22337;DHT22;14992;50.844;4.418;2023-08-21T02:17:57;21.80;99.90
22337;DHT22;14992;50.844;4.418;2023-08-21T02:20:26;21.90;99.90
22337;DHT22;14992;50.844;4.418;2023-08-21T02:22:55;21.90;99.90
22337;DHT22;14992;50.844;4.418;2023-08-21T02:25:24;21.90;99.90
22337;DHT22;14992;50.844;4.418;2023-08-21T02:27:53;21.90;99.90
22337;DHT22;14992;50.844;4.418;2023-08-21T02:30:22;21.80;99.90
22337;DHT22;14992;50.844;4.418;2023-08-21T02:32:54;21.90;99.90
22337;DHT22;14992;50.844;4.418;2023-08-21T02:35:22;21.80;99.90
22337;DHT22;14992;50.844;4.418;2023-08-21T02:37:51;21.80;99.90
22337;DHT22;14992;50.844;4.418;2023-08-21T02:40:20;21.80;99.90
22337;DHT22;14992;50.844;4.418;2023-08-21T02:42:49;21.80;99.90
22337;DHT22;14992;50.844;4.418;2023-08-21T02:45:18;21.70;99.90
22337;DHT22;14992;50.844;4.418;2023-08-21T02:47:48;21.70;99.90
22337;DHT22;14992;50.844;4.418;2023-08-21T02:50:20;21.70;99.90
22337;DHT22;14992;50.844;4.418;2023-08-21T02:52:49;21.70;99.90
22337;DHT22;14992;50.844;4.418;2023-08-21T02:55:19;21.60;99.90
22337;DHT22;14992;50.844;4.418;2023-08-21T02:57:49;21.60;99.90
22337;DHT22;14992;50.844;4.418;2023-08-21T03:00:18;21.50;99.90
22337;DHT22;14992;50.844;4.418;2023-08-21T03:02:47;21.60;99.90
22337;DHT22;14992;50.844;4.418;2023-08-21T03:05:16;21.50;99.90
22337;DHT22;14992;50.844;4.418;2023-08-21T03:07:46;21.50;99.90
22337;DHT22;14992;50.844;4.418;2023-08-21T03:10:15;21.50;99.90
22337;DHT22;14992;50.844;4.418;2023-08-21T03:12:44;21.50;99.90
22337;DHT22;14992;50.844;4.418;2023-08-21T03:15:13;21.50;99.90
22337;DHT22;14992;50.844;4.418;2023-08-21T03:17:42;21.50;99.90
22337;DHT22;14992;50.844;4.418;2023-08-21T03:20:11;21.50;99.90
22337;DHT22;14992;50.844;4.418;2023-08-21T03:22:41;21.60;99.90
22337;DHT22;14992;50.844;4.418;2023-08-21T03:25:12;21.50;99.90
22337;DHT22;14992;50.844;4.418;2023-08-21T03:27:41;21.50;99.90
22337;DHT22;14992;50.844;4.418;2023-08-21T03:30:12;21.50;99.90
22337;DHT22;14992;50.844;4.418;2023-08-21T03:32:42;21.50;99.90
22337;DHT22;14992;50.844;4.418;2023-08-21T03:35:12;21.50;99.90
22337;DHT22;14992;50.844;4.418;2023-08-21T03:37:41;21.50;99.90
22337;DHT22;14992;50.844;4.418;2023-08-21T03:40:15;21.50;99.90
22337;DHT22;14992;50.844;4.418;2023-08-21T03:42:45;21.50;99.90
22337;DHT22;14992;50.844;4.418;2023-08-21T03:45:14;21.40;99.90
22337;DHT22;14992;50.844;4.418;2023-08-21T03:47:44;21.30;99.90
22337;DHT22;14992;50.844;4.418;2023-08-21T03:50:18;21.30;99.90
22337;DHT22;14992;50.844;4.418;2023-08-21T03:52:46;21.20;99.90
22337;DHT22;14992;50.844;4.418;2023-08-21T03:55:17;21.20;99.90
22337;DHT22;14992;50.844;4.418;2023-08-21T03:57:46;21.10;99.90
22337;DHT22;14992;50.844;4.418;2023-08-21T04:00:14;21.10;99.90
22337;DHT22;14992;50.844;4.418;2023-08-21T04:02:43;21.20;99.90
22337;DHT22;14992;50.844;4.418;2023-08-21T04:05:12;21.20;99.90
22337;DHT22;14992;50.844;4.418;2023-08-21T04:07:41;21.20;99.90
22337;DHT22;14992;50.844;4.418;2023-08-21T04:10:10;21.10;99.90
22337;DHT22;14992;50.844;4.418;2023-08-21T04:12:40;21.10;99.90
22337;DHT22;14992;50.844;4.418;2023-08-21T04:15:10;21.00;99.90
22337;DHT22;14992;50.844;4.418;2023-08-21T04:17:40;21.00;99.90
22337;DHT22;14992;50.844;4.418;2023-08-21T04:20:10;21.00;99.90
22337;DHT22;14992;50.844;4.418;2023-08-21T04:22:40;21.00;99.90
22337;DHT22;14992;50.844;4.418;2023-08-21T04:25:10;21.10;99.90
22337;DHT22;14992;50.844;4.418;2023-08-21T04:27:41;21.00;99.90
22337;DHT22;14992;50.844;4.418;2023-08-21T04:30:11;21.00;99.90
22337;DHT22;14992;50.844;4.418;2023-08-21T04:32:41;20.90;99.90
22337;DHT22;14992;50.844;4.418;2023-08-21T04:35:11;20.90;99.90
22337;DHT22;14992;50.844;4.418;2023-08-21T04:37:45;20.80;99.90
22337;DHT22;14992;50.844;4.418;2023-08-21T04:40:16;20.90;99.90
22337;DHT22;14992;50.844;4.418;2023-08-21T04:42:49;20.90;99.90
22337;DHT22;14992;50.844;4.418;2023-08-21T04:45:20;20.90;99.90
22337;DHT22;14992;50.844;4.418;2023-08-21T04:47:49;20.90;99.90
22337;DHT22;14992;50.844;4.418;2023-08-21T04:50:18;21.00;99.90
22337;DHT22;14992;50.844;4.418;2023-08-21T04:52:47;20.90;99.90
22337;DHT22;14992;50.844;4.418;2023-08-21T04:55:16;20.90;99.90
22337;DHT22;14992;50.844;4.418;2023-08-21T04:57:47;20.90;99.90
22337;DHT22;14992;50.844;4.418;2023-08-21T05:00:17;20.80;99.90
22337;DHT22;14992;50.844;4.418;2023-08-21T05:02:46;20.70;99.90
22337;DHT22;14992;50.844;4.418;2023-08-21T05:05:16;20.70;99.90
22337;DHT22;14992;50.844;4.418;2023-08-21T05:07:45;20.80;99.90
22337;DHT22;14992;50.844;4.418;2023-08-21T05:10:14;20.80;99.90
22337;DHT22;14992;50.844;4.418;2023-08-21T05:12:44;20.80;99.90
22337;DHT22;14992;50.844;4.418;2023-08-21T05:15:13;20.80;99.90
22337;DHT22;14992;50.844;4.418;2023-08-21T05:17:43;20.70;99.90
22337;DHT22;14992;50.844;4.418;2023-08-21T05:20:13;20.70;99.90
22337;DHT22;14992;50.844;4.418;2023-08-21T05:22:43;20.80;99.90
22337;DHT22;14992;50.844;4.418;2023-08-21T05:25:12;20.90;99.90
22337;DHT22;14992;50.844;4.418;2023-08-21T05:27:43;20.90;99.90
22337;DHT22;14992;50.844;4.418;2023-08-21T05:30:12;20.90;99.90
22337;DHT22;14992;50.844;4.418;2023-08-21T05:32:44;21.10;99.90
22337;DHT22;14992;50.844;4.418;2023-08-21T05:35:13;21.10;99.90
22337;DHT22;14992;50.844;4.418;2023-08-21T05:37:43;21.10;99.90
22337;DHT22;14992;50.844;4.418;2023-08-21T05:40:12;21.10;99.90
22337;DHT22;14992;50.844;4.418;2023-08-21T05:42:42;21.20;99.90
22337;DHT22;14992;50.844;4.418;2023-08-21T05:45:12;21.20;99.90
22337;DHT22;14992;50.844;4.418;2023-08-21T05:47:41;21.20;99.90
22337;DHT22;14992;50.844;4.418;2023-08-21T05:50:12;21.20;99.90
22337;DHT22;14992;50.844;4.418;2023-08-21T05:52:42;21.30;99.90
22337;DHT22;14992;50.844;4.418;2023-08-21T05:55:11;21.40;99.90
22337;DHT22;14992;50.844;4.418;2023-08-21T05:57:41;21.30;99.90
22337;DHT22;14992;50.844;4.418;2023-08-21T06:00:11;21.50;99.90
22337;DHT22;14992;50.844;4.418;2023-08-21T06:02:41;21.40;99.90
22337;DHT22;14992;50.844;4.418;2023-08-21T06:05:19;21.30;99.90
22337;DHT22;14992;50.844;4.418;2023-08-21T06:07:51;21.40;99.90
22337;DHT22;14992;50.844;4.418;2023-08-21T06:10:20;21.40;99.90
22337;DHT22;14992;50.844;4.418;2023-08-21T06:12:49;21.50;99.90
22337;DHT22;14992;50.844;4.418;2023-08-21T06:15:19;21.40;99.90
22337;DHT22;14992;50.844;4.418;2023-08-21T06:17:48;21.40;99.90
22337;DHT22;14992;50.844;4.418;2023-08-21T06:20:18;21.30;99.90
22337;DHT22;14992;50.844;4.418;2023-08-21T06:22:48;21.40;99.90
22337;DHT22;14992;50.844;4.418;2023-08-21T06:25:17;21.50;99.90
22337;DHT22;14992;50.844;4.418;2023-08-21T06:27:47;21.60;99.90
22337;DHT22;14992;50.844;4.418;2023-08-21T06:30:26;21.60;99.90
22337;DHT22;14992;50.844;4.418;2023-08-21T06:32:55;21.50;99.90
22337;DHT22;14992;50.844;4.418;2023-08-21T06:35:27;21.60;99.90
22337;DHT22;14992;50.844;4.418;2023-08-21T06:37:56;21.80;99.90
22337;DHT22;14992;50.844;4.418;2023-08-21T06:40:25;21.90;99.90
22337;DHT22;14992;50.844;4.418;2023-08-21T06:42:53;22.00;99.90
22337;DHT22;14992;50.844;4.418;2023-08-21T06:45:27;22.00;99.90
22337;DHT22;14992;50.844;4.418;2023-08-21T06:47:58;22.00;99.90
22337;DHT22;14992;50.844;4.418;2023-08-21T06:50:29;21.90;99.90
22337;DHT22;14992;50.844;4.418;2023-08-21T06:52:58;21.70;99.90
22337;DHT22;14992;50.844;4.418;2023-08-21T06:55:28;21.70;99.90
22337;DHT22;14992;50.844;4.418;2023-08-21T06:57:57;21.80;99.90
22337;DHT22;14992;50.844;4.418;2023-08-21T07:00:26;21.80;99.90
22337;DHT22;14992;50.844;4.418;2023-08-21T07:02:55;22.00;99.90
22337;DHT22;14992;50.844;4.418;2023-08-21T07:05:23;22.10;99.90
22337;DHT22;14992;50.844;4.418;2023-08-21T07:07:54;22.30;99.90
22337;DHT22;14992;50.844;4.418;2023-08-21T07:10:23;22.20;99.90
22337;DHT22;14992;50.844;4.418;2023-08-21T07:12:53;22.30;99.90
22337;DHT22;14992;50.844;4.418;2023-08-21T07:15:22;22.50;99.90
22337;DHT22;14992;50.844;4.418;2023-08-21T07:17:51;22.60;99.90
22337;DHT22;14992;50.844;4.418;2023-08-21T07:20:20;22.60;99.90
22337;DHT22;14992;50.844;4.418;2023-08-21T07:22:49;22.60;99.90
22337;DHT22;14992;50.844;4.418;2023-08-21T07:25:19;22.60;99.90
22337;DHT22;14992;50.844;4.418;2023-08-21T07:27:50;22.70;99.90
22337;DHT22;14992;50.844;4.418;2023-08-21T07:30:20;22.50;99.90
22337;DHT22;14992;50.844;4.418;2023-08-21T07:32:49;22.50;99.90
22337;DHT22;14992;50.844;4.418;2023-08-21T07:35:19;22.50;99.90
22337;DHT22;14992;50.844;4.418;2023-08-21T07:37:48;22.60;99.90
22337;DHT22;14992;50.844;4.418;2023-08-21T07:40:18;22.80;99.90
22337;DHT22;14992;50.844;4.418;2023-08-21T07:42:47;23.00;99.90
22337;DHT22;14992;50.844;4.418;2023-08-21T07:45:16;23.10;99.90
22337;DHT22;14992;50.844;4.418;2023-08-21T07:47:45;23.20;99.90
22337;DHT22;14992;50.844;4.418;2023-08-21T07:50:27;23.20;99.90
22337;DHT22;14992;50.844;4.418;2023-08-21T07:52:56;23.10;99.90
22337;DHT22;14992;50.844;4.418;2023-08-21T07:55:27;23.40;99.90
22337;DHT22;14992;50.844;4.418;2023-08-21T07:57:55;23.50;99.90
22337;DHT22;14992;50.844;4.418;2023-08-21T08:00:24;23.60;99.90
22337;DHT22;14992;50.844;4.418;2023-08-21T08:02:53;23.60;99.90
22337;DHT22;14992;50.844;4.418;2023-08-21T08:05:22;23.70;99.90
22337;DHT22;14992;50.844;4.418;2023-08-21T08:07:51;23.50;99.90
22337;DHT22;14992;50.844;4.418;2023-08-21T08:10:20;23.50;99.90
22337;DHT22;14992;50.844;4.418;2023-08-21T08:12:50;23.60;99.90
22337;DHT22;14992;50.844;4.418;2023-08-21T08:15:19;23.40;99.90
22337;DHT22;14992;50.844;4.418;2023-08-21T08:17:48;23.60;99.90
22337;DHT22;14992;50.844;4.418;2023-08-21T08:20:19;23.90;99.90
22337;DHT22;14992;50.844;4.418;2023-08-21T08:22:48;23.90;99.90
22337;DHT22;14992;50.844;4.418;2023-08-21T08:25:17;23.90;99.90
22337;DHT22;14992;50.844;4.418;2023-08-21T08:27:46;24.00;99.90
22337;DHT22;14992;50.844;4.418;2023-08-21T08:30:17;24.00;99.90
22337;DHT22;14992;50.844;4.418;2023-08-21T08:32:45;23.90;99.90
22337;DHT22;14992;50.844;4.418;2023-08-21T08:35:15;24.00;99.90
22337;DHT22;14992;50.844;4.418;2023-08-21T08:37:44;24.10;99.90
22337;DHT22;14992;50.844;4.418;2023-08-21T08:40:13;24.10;99.90
22337;DHT22;14992;50.844;4.418;2023-08-21T08:42:42;24.10;99.90
22337;DHT22;14992;50.844;4.418;2023-08-21T08:45:13;24.20;99.90
22337;DHT22;14992;50.844;4.418;2023-08-21T08:47:44;24.10;99.90
22337;DHT22;14992;50.844;4.418;2023-08-21T08:50:14;24.10;99.90
22337;DHT22;14992;50.844;4.418;2023-08-21T08:52:44;24.20;99.90
22337;DHT22;14992;50.844;4.418;2023-08-21T08:55:14;24.20;99.90
22337;DHT22;14992;50.844;4.418;2023-08-21T08:57:43;24.20;99.90
22337;DHT22;14992;50.844;4.418;2023-08-21T09:00:13;24.10;99.90
22337;DHT22;14992;50.844;4.418;2023-08-21T09:02:44;24.00;99.90
22337;DHT22;14992;50.844;4.418;2023-08-21T09:05:13;24.20;99.90
22337;DHT22;14992;50.844;4.418;2023-08-21T09:07:43;24.50;99.90
22337;DHT22;14992;50.844;4.418;2023-08-21T09:10:15;24.50;99.90
22337;DHT22;14992;50.844;4.418;2023-08-21T09:12:45;24.30;99.90
22337;DHT22;14992;50.844;4.418;2023-08-21T09:15:15;24.40;99.90
22337;DHT22;14992;50.844;4.418;2023-08-21T09:17:53;24.10;99.90
22337;DHT22;14992;50.844;4.418;2023-08-21T09:20:22;24.20;99.90
22337;DHT22;14992;50.844;4.418;2023-08-21T09:22:54;24.20;98.80
22337;DHT22;14992;50.844;4.418;2023-08-21T09:25:25;24.40;98.40
22337;DHT22;14992;50.844;4.418;2023-08-21T09:27:54;24.50;98.60
22337;DHT22;14992;50.844;4.418;2023-08-21T09:30:23;24.60;99.60
22337;DHT22;14992;50.844;4.418;2023-08-21T09:32:55;24.80;99.90
22337;DHT22;14992;50.844;4.418;2023-08-21T09:35:24;24.60;99.90
22337;DHT22;14992;50.844;4.418;2023-08-21T09:37:53;24.60;99.90
22337;DHT22;14992;50.844;4.418;2023-08-21T09:40:22;24.80;98.80
22337;DHT22;14992;50.844;4.418;2023-08-21T09:42:55;24.90;98.50
22337;DHT22;14992;50.844;4.418;2023-08-21T09:45:26;25.00;98.20
22337;DHT22;14992;50.844;4.418;2023-08-21T09:47:57;25.20;98.70
22337;DHT22;14992;50.844;4.418;2023-08-21T09:50:29;25.30;98.90
22337;DHT22;14992;50.844;4.418;2023-08-21T09:52:58;25.30;97.90
22337;DHT22;14992;50.844;4.418;2023-08-21T09:55:28;25.40;97.50
22337;DHT22;14992;50.844;4.418;2023-08-21T09:58:00;25.50;97.20
22337;DHT22;14992;50.844;4.418;2023-08-21T10:00:30;25.60;97.50
22337;DHT22;14992;50.844;4.418;2023-08-21T10:03:02;25.80;97.40
22337;DHT22;14992;50.844;4.418;2023-08-21T10:05:33;25.90;97.60
22337;DHT22;14992;50.844;4.418;2023-08-21T10:08:04;25.60;98.50
22337;DHT22;14992;50.844;4.418;2023-08-21T10:10:35;25.60;98.30
22337;DHT22;14992;50.844;4.418;2023-08-21T10:13:05;25.80;97.60
22337;DHT22;14992;50.844;4.418;2023-08-21T10:15:37;25.80;97.10
22337;DHT22;14992;50.844;4.418;2023-08-21T10:18:21;26.00;97.70
22337;DHT22;14992;50.844;4.418;2023-08-21T10:20:52;26.00;97.60
22337;DHT22;14992;50.844;4.418;2023-08-21T10:23:26;26.00;96.90
22337;DHT22;14992;50.844;4.418;2023-08-21T10:25:56;26.30;96.10
22337;DHT22;14992;50.844;4.418;2023-08-21T10:28:48;26.10;96.10
22337;DHT22;14992;50.844;4.418;2023-08-21T10:31:32;25.90;97.70
22337;DHT22;14992;50.844;4.418;2023-08-21T10:34:04;25.70;97.70
22337;DHT22;14992;50.844;4.418;2023-08-21T10:37:07;25.60;98.00
22337;DHT22;14992;50.844;4.418;2023-08-21T10:39:54;25.70;97.60
22337;DHT22;14992;50.844;4.418;2023-08-21T10:42:37;25.70;98.20
22337;DHT22;14992;50.844;4.418;2023-08-21T10:45:12;25.60;97.80
22337;DHT22;14992;50.844;4.418;2023-08-21T10:47:43;25.90;98.00
22337;DHT22;14992;50.844;4.418;2023-08-21T10:50:16;25.90;96.60
22337;DHT22;14992;50.844;4.418;2023-08-21T10:52:50;26.00;96.30
22337;DHT22;14992;50.844;4.418;2023-08-21T10:55:20;26.30;95.50
22337;DHT22;14992;50.844;4.418;2023-08-21T10:57:50;26.30;95.00
22337;DHT22;14992;50.844;4.418;2023-08-21T11:00:19;26.20;95.20
22337;DHT22;14992;50.844;4.418;2023-08-21T11:02:49;26.30;95.40
22337;DHT22;14992;50.844;4.418;2023-08-21T11:05:20;26.10;95.60
22337;DHT22;14992;50.844;4.418;2023-08-21T11:07:49;26.20;95.40
22337;DHT22;14992;50.844;4.418;2023-08-21T11:10:22;26.10;95.30
22337;DHT22;14992;50.844;4.418;2023-08-21T11:12:52;26.00;95.50
22337;DHT22;14992;50.844;4.418;2023-08-21T11:15:24;25.90;96.00
22337;DHT22;14992;50.844;4.418;2023-08-21T11:17:55;25.90;95.90
22337;DHT22;14992;50.844;4.418;2023-08-21T11:20:29;26.10;95.50
22337;DHT22;14992;50.844;4.418;2023-08-21T11:22:58;26.30;94.80
22337;DHT22;14992;50.844;4.418;2023-08-21T11:25:28;26.60;94.60
22337;DHT22;14992;50.844;4.418;2023-08-21T11:27:57;26.70;94.30
22337;DHT22;14992;50.844;4.418;2023-08-21T11:30:26;26.80;94.40
22337;DHT22;14992;50.844;4.418;2023-08-21T11:33:05;27.10;93.50
22337;DHT22;14992;50.844;4.418;2023-08-21T11:35:36;27.20;92.70
22337;DHT22;14992;50.844;4.418;2023-08-21T11:38:06;27.20;92.80
22337;DHT22;14992;50.844;4.418;2023-08-21T11:40:36;27.30;92.10
22337;DHT22;14992;50.844;4.418;2023-08-21T11:43:05;27.20;91.90
22337;DHT22;14992;50.844;4.418;2023-08-21T11:45:36;27.20;92.50
22337;DHT22;14992;50.844;4.418;2023-08-21T11:48:20;27.10;91.90
22337;DHT22;14992;50.844;4.418;2023-08-21T11:50:50;27.00;92.40
22337;DHT22;14992;50.844;4.418;2023-08-21T11:53:30;27.10;91.90
22337;DHT22;14992;50.844;4.418;2023-08-21T11:55:59;27.10;91.90
22337;DHT22;14992;50.844;4.418;2023-08-21T11:58:28;27.20;91.30
22337;DHT22;14992;50.844;4.418;2023-08-21T12:01:02;27.20;91.70
22337;DHT22;14992;50.844;4.418;2023-08-21T12:03:36;27.10;93.40
22337;DHT22;14992;50.844;4.418;2023-08-21T12:06:09;27.20;92.60
22337;DHT22;14992;50.844;4.418;2023-08-21T12:08:38;27.10;92.70
22337;DHT22;14992;50.844;4.418;2023-08-21T12:11:07;26.90;93.20
22337;DHT22;14992;50.844;4.418;2023-08-21T12:13:36;26.70;93.60
22337;DHT22;14992;50.844;4.418;2023-08-21T12:16:05;26.50;93.90
22337;DHT22;14992;50.844;4.418;2023-08-21T12:18:34;26.50;94.70
22337;DHT22;14992;50.844;4.418;2023-08-21T12:21:03;26.40;95.20
22337;DHT22;14992;50.844;4.418;2023-08-21T12:23:33;26.60;95.10
22337;DHT22;14992;50.844;4.418;2023-08-21T12:26:02;26.60;95.40
22337;DHT22;14992;50.844;4.418;2023-08-21T12:28:30;26.70;94.70
22337;DHT22;14992;50.844;4.418;2023-08-21T12:30:59;26.70;94.00
22337;DHT22;14992;50.844;4.418;2023-08-21T12:33:28;26.40;95.60
22337;DHT22;14992;50.844;4.418;2023-08-21T12:35:57;26.40;95.40
22337;DHT22;14992;50.844;4.418;2023-08-21T12:38:26;26.10;95.30
22337;DHT22;14992;50.844;4.418;2023-08-21T12:40:58;26.00;96.20
22337;DHT22;14992;50.844;4.418;2023-08-21T12:43:27;26.00;96.50
22337;DHT22;14992;50.844;4.418;2023-08-21T12:45:56;26.10;96.60
22337;DHT22;14992;50.844;4.418;2023-08-21T12:48:25;26.10;96.40
22337;DHT22;14992;50.844;4.418;2023-08-21T12:50:54;26.30;96.80
22337;DHT22;14992;50.844;4.418;2023-08-21T12:53:23;26.40;95.80
22337;DHT22;14992;50.844;4.418;2023-08-21T12:55:51;26.30;96.00
22337;DHT22;14992;50.844;4.418;2023-08-21T12:58:22;26.60;96.10
22337;DHT22;14992;50.844;4.418;2023-08-21T13:00:51;26.70;96.00
22337;DHT22;14992;50.844;4.418;2023-08-21T13:03:19;26.80;96.20
22337;DHT22;14992;50.844;4.418;2023-08-21T13:05:50;26.70;96.00
22337;DHT22;14992;50.844;4.418;2023-08-21T13:08:18;26.50;96.40
22337;DHT22;14992;50.844;4.418;2023-08-21T13:10:47;26.70;96.10
22337;DHT22;14992;50.844;4.418;2023-08-21T13:13:16;26.60;95.60
22337;DHT22;14992;50.844;4.418;2023-08-21T13:15:46;26.70;96.60
22337;DHT22;14992;50.844;4.418;2023-08-21T13:18:15;26.80;95.70
22337;DHT22;14992;50.844;4.418;2023-08-21T13:20:44;26.70;95.20
22337;DHT22;14992;50.844;4.418;2023-08-21T13:23:13;26.90;95.00
22337;DHT22;14992;50.844;4.418;2023-08-21T13:25:42;27.10;94.30
22337;DHT22;14992;50.844;4.418;2023-08-21T13:28:11;27.20;93.90
22337;DHT22;14992;50.844;4.418;2023-08-21T13:30:40;27.30;93.40
22337;DHT22;14992;50.844;4.418;2023-08-21T13:33:10;27.40;93.60
22337;DHT22;14992;50.844;4.418;2023-08-21T13:35:39;27.40;93.40
22337;DHT22;14992;50.844;4.418;2023-08-21T13:38:07;27.50;92.40
22337;DHT22;14992;50.844;4.418;2023-08-21T13:40:36;27.50;92.50
22337;DHT22;14992;50.844;4.418;2023-08-21T13:43:05;27.30;93.10
22337;DHT22;14992;50.844;4.418;2023-08-21T13:45:35;27.20;92.90
22337;DHT22;14992;50.844;4.418;2023-08-21T13:48:04;27.20;93.00
22337;DHT22;14992;50.844;4.418;2023-08-21T13:50:35;27.50;92.70
22337;DHT22;14992;50.844;4.418;2023-08-21T13:53:04;27.30;93.30
22337;DHT22;14992;50.844;4.418;2023-08-21T13:55:33;27.40;92.80
22337;DHT22;14992;50.844;4.418;2023-08-21T13:58:02;27.40;90.90
22337;DHT22;14992;50.844;4.418;2023-08-21T14:00:31;27.70;89.20
22337;DHT22;14992;50.844;4.418;2023-08-21T14:02:59;27.70;88.20
22337;DHT22;14992;50.844;4.418;2023-08-21T14:05:28;27.80;87.20
22337;DHT22;14992;50.844;4.418;2023-08-21T14:08:00;27.70;87.30
22337;DHT22;14992;50.844;4.418;2023-08-21T14:10:29;27.80;87.30
22337;DHT22;14992;50.844;4.418;2023-08-21T14:12:58;27.70;86.00
22337;DHT22;14992;50.844;4.418;2023-08-21T14:15:27;27.80;85.50
22337;DHT22;14992;50.844;4.418;2023-08-21T14:17:56;28.00;83.50
22337;DHT22;14992;50.844;4.418;2023-08-21T14:20:25;28.00;81.70
22337;DHT22;14992;50.844;4.418;2023-08-21T14:22:54;28.00;80.00
22337;DHT22;14992;50.844;4.418;2023-08-21T14:25:24;28.00;79.50
22337;DHT22;14992;50.844;4.418;2023-08-21T14:27:53;27.80;80.10
22337;DHT22;14992;50.844;4.418;2023-08-21T14:30:22;27.80;81.00
22337;DHT22;14992;50.844;4.418;2023-08-21T14:32:51;27.80;81.00
22337;DHT22;14992;50.844;4.418;2023-08-21T14:35:20;27.70;83.20
22337;DHT22;14992;50.844;4.418;2023-08-21T14:37:49;27.90;80.70
22337;DHT22;14992;50.844;4.418;2023-08-21T14:40:18;27.90;79.80
22337;DHT22;14992;50.844;4.418;2023-08-21T14:42:48;27.90;80.60
22337;DHT22;14992;50.844;4.418;2023-08-21T14:45:17;27.90;79.50
22337;DHT22;14992;50.844;4.418;2023-08-21T14:47:46;28.10;76.40
22337;DHT22;14992;50.844;4.418;2023-08-21T14:50:15;28.10;75.40
22337;DHT22;14992;50.844;4.418;2023-08-21T14:52:44;28.00;73.60
22337;DHT22;14992;50.844;4.418;2023-08-21T14:55:15;27.80;74.90
22337;DHT22;14992;50.844;4.418;2023-08-21T14:57:44;27.70;75.40
22337;DHT22;14992;50.844;4.418;2023-08-21T15:00:15;27.70;74.80
22337;DHT22;14992;50.844;4.418;2023-08-21T15:02:44;27.70;74.40
22337;DHT22;14992;50.844;4.418;2023-08-21T15:05:13;27.80;76.90
22337;DHT22;14992;50.844;4.418;2023-08-21T15:07:44;28.00;74.30
22337;DHT22;14992;50.844;4.418;2023-08-21T15:10:13;28.00;73.80
22337;DHT22;14992;50.844;4.418;2023-08-21T15:12:42;27.90;72.10
22337;DHT22;14992;50.844;4.418;2023-08-21T15:15:12;28.00;70.40
22337;DHT22;14992;50.844;4.418;2023-08-21T15:17:42;28.00;70.90
22337;DHT22;14992;50.844;4.418;2023-08-21T15:20:11;28.00;72.10
22337;DHT22;14992;50.844;4.418;2023-08-21T15:22:42;28.10;71.60
22337;DHT22;14992;50.844;4.418;2023-08-21T15:25:11;28.10;71.70
22337;DHT22;14992;50.844;4.418;2023-08-21T15:27:40;28.20;68.60
22337;DHT22;14992;50.844;4.418;2023-08-21T15:30:09;28.10;68.30
22337;DHT22;14992;50.844;4.418;2023-08-21T15:32:38;28.00;68.90
22337;DHT22;14992;50.844;4.418;2023-08-21T15:35:09;28.10;69.20
22337;DHT22;14992;50.844;4.418;2023-08-21T15:37:38;28.20;68.20
22337;DHT22;14992;50.844;4.418;2023-08-21T15:40:08;28.20;68.50
22337;DHT22;14992;50.844;4.418;2023-08-21T15:42:36;28.10;69.90
22337;DHT22;14992;50.844;4.418;2023-08-21T15:45:06;28.20;69.40
22337;DHT22;14992;50.844;4.418;2023-08-21T15:47:35;28.30;69.10